Time;durP1;ratioP1;P1;durP2;ratioP2;P2;SDS_P1;SDS_P2;PMS_P1;PMS_P2;Temp;Humidity;BMP_temperature;BMP_pressure;BME280_temperature;BME280_humidity;BME280_pressure;Samples;Min_cycle;Max_cycle;Signal;HPM_P1;HPM_P2
2022/01/01 00:01:16;;;;;;;0.00;0.00;;;;;;;;;;6271558;22;20019;-69
2022/01/01 00:03:41;;;;;;;0.57;0.57;;;;;;;;;;6271839;22;20075;-69
2022/01/01 00:06:06;;;;;;;0.25;0.25;;;;;;;;;;6270303;22;20004;-70
2022/01/01 00:08:31;;;;;;;0.00;0.00;;;;;;;;;;6272041;22;20577;-70
2022/01/01 00:10:57;;;;;;;0.20;0.20;;;;;;;;;;6272214;22;20321;-71
2022/01/01 00:13:22;;;;;;;3.42;3.22;;;;;;;;;;6271805;22;20448;-70
2022/01/01 00:15:47;;;;;;;0.08;0.08;;;;;;;;;;6271818;22;20011;-70
2022/01/01 00:18:12;;;;;;;1.63;1.52;;;;;;;;;;6244311;22;20004;-70
2022/01/01 00:20:40;;;;;;;0.00;0.00;;;;;;;;;;6271261;22;19998;-70
2022/01/01 00:23:06;;;;;;;1.48;1.38;;;;;;;;;;6271505;22;20476;-70
2022/01/01 00:25:31;;;;;;;1.42;1.42;;;;;;;;;;6271611;22;19996;-69
2022/01/01 00:27:56;;;;;;;5.55;4.88;;;;;;;;;;6272367;22;20000;-69
2022/01/01 00:30:22;;;;;;;0.63;0.63;;;;;;;;;;6271627;22;20004;-69
2022/01/01 00:32:48;;;;;;;0.00;0.00;;;;;;;;;;6272238;22;20093;-69
2022/01/01 00:35:14;;;;;;;0.00;0.00;;;;;;;;;;6270714;22;19999;-70
2022/01/01 00:37:39;;;;;;;0.70;0.70;;;;;;;;;;6271937;22;20421;-69
2022/01/01 00:40:04;;;;;;;0.05;0.05;;;;;;;;;;6271006;22;20618;-69
2022/01/01 00:42:30;;;;;;;0.43;0.43;;;;;;;;;;6272841;22;20002;-70
2022/01/01 00:44:55;;;;;;;2.42;2.42;;;;;;;;;;6273578;22;20006;-70
2022/01/01 00:47:20;;;;;;;0.85;0.85;;;;;;;;;;6273251;22;20010;-70
2022/01/01 00:49:45;;;;;;;0.08;0.08;;;;;;;;;;6273999;22;20010;-69
2022/01/01 00:52:11;;;;;;;0.00;0.00;;;;;;;;;;6245812;22;20003;-69
2022/01/01 00:54:36;;;;;;;1.42;1.42;;;;;;;;;;6273871;22;20351;-69
2022/01/01 00:57:01;;;;;;;0.22;0.22;;;;;;;;;;6273255;22;19996;-70
2022/01/01 00:59:29;;;;;;;0.52;0.52;;;;;;;;;;6273151;22;20788;-71
2022/01/01 01:01:54;;;;;;;1.92;1.73;;;;;;;;;;6273592;22;19995;-69
2022/01/01 01:04:19;;;;;;;1.90;0.45;;;;;;;;;;6272384;22;20003;-69
2022/01/01 01:06:45;;;;;;;1.17;1.17;;;;;;;;;;6273735;22;20007;-69
2022/01/01 01:09:10;;;;;;;0.05;0.05;;;;;;;;;;6273306;22;20457;-70
2022/01/01 01:11:42;;;;;;;21.25;1.13;;;;;;;;;;6273692;22;19999;-70
2022/01/01 01:14:10;;;;;;;0.47;0.47;;;;;;;;;;6273076;22;20103;-70
2022/01/01 01:16:35;;;;;;;1.10;1.08;;;;;;;;;;6273612;22;20067;-69
2022/01/01 01:19:00;;;;;;;8.48;2.65;;;;;;;;;;6273406;22;20031;-70
2022/01/01 01:21:25;;;;;;;0.17;0.17;;;;;;;;;;6272645;22;20002;-70
2022/01/01 01:23:51;;;;;;;0.00;0.00;;;;;;;;;;6246286;22;20068;-69
2022/01/01 01:26:17;;;;;;;1.48;1.38;;;;;;;;;;6272814;22;20303;-70
2022/01/01 01:28:48;;;;;;;0.45;0.45;;;;;;;;;;6273619;22;20010;-70
2022/01/01 01:31:13;;;;;;;0.90;0.90;;;;;;;;;;6273082;22;20071;-71
2022/01/01 01:33:41;;;;;;;0.00;0.00;;;;;;;;;;6272757;22;20019;-70
2022/01/01 01:36:12;;;;;;;0.00;0.00;;;;;;;;;;6272247;22;20003;-70
2022/01/01 01:38:40;;;;;;;0.77;0.25;;;;;;;;;;6273757;22;20000;-70
2022/01/01 01:41:06;;;;;;;0.00;0.00;;;;;;;;;;6272966;22;20027;-71
2022/01/01 01:43:32;;;;;;;2.55;1.42;;;;;;;;;;6273238;22;20000;-71
2022/01/01 01:46:02;;;;;;;0.00;0.00;;;;;;;;;;6273840;22;20000;-71
2022/01/01 01:48:28;;;;;;;0.00;0.00;;;;;;;;;;6273873;22;20034;-68
2022/01/01 01:50:55;;;;;;;0.00;0.00;;;;;;;;;;6273160;22;19995;-67
2022/01/01 01:53:20;;;;;;;1.17;1.08;;;;;;;;;;6271923;22;20004;-67
2022/01/01 01:55:45;;;;;;;0.10;0.10;;;;;;;;;;6273292;22;20003;-68
2022/01/01 01:58:11;;;;;;;0.10;0.10;;;;;;;;;;6272913;22;20740;-67
2022/01/01 02:03:16;;;;;;;0.00;0.00;;;;;;;;;;6283249;22;20018;-67
2022/01/01 02:05:43;;;;;;;0.00;0.00;;;;;;;;;;6272944;22;19996;-66
2022/01/01 02:08:09;;;;;;;0.00;0.00;;;;;;;;;;6272681;22;20015;-68
2022/01/01 02:10:35;;;;;;;0.20;0.20;;;;;;;;;;6273211;22;20048;-69
2022/01/01 02:13:08;;;;;;;0.00;0.00;;;;;;;;;;6273171;22;20620;-68
2022/01/01 02:18:31;;;;;;;0.38;0.38;;;;;;;;;;6222278;22;20007;-67
2022/01/01 02:20:56;;;;;;;0.10;0.10;;;;;;;;;;6272790;22;20361;-67
2022/01/01 02:23:23;;;;;;;0.00;0.00;;;;;;;;;;6272304;22;19992;-68
2022/01/01 02:25:49;;;;;;;0.00;0.00;;;;;;;;;;6272874;22;20425;-68
2022/01/01 02:28:14;;;;;;;0.00;0.00;;;;;;;;;;6272113;22;20061;-68
2022/01/01 02:30:40;;;;;;;0.00;0.00;;;;;;;;;;6272497;22;20090;-67
2022/01/01 02:33:05;;;;;;;0.38;0.28;;;;;;;;;;6272183;22;20000;-68
2022/01/01 02:35:30;;;;;;;0.00;0.00;;;;;;;;;;6272783;22;20029;-68
2022/01/01 02:37:55;;;;;;;0.00;0.00;;;;;;;;;;6272378;22;20153;-68
2022/01/01 02:40:21;;;;;;;0.00;0.00;;;;;;;;;;6272161;22;20073;-67
2022/01/01 02:42:46;;;;;;;0.00;0.00;;;;;;;;;;6272833;22;20023;-69
2022/01/01 02:45:13;;;;;;;0.00;0.00;;;;;;;;;;6271740;22;20066;-68
2022/01/01 02:47:39;;;;;;;0.00;0.00;;;;;;;;;;6272800;22;20049;-68
2022/01/01 02:50:04;;;;;;;0.00;0.00;;;;;;;;;;6272880;22;20000;-68
2022/01/01 02:52:30;;;;;;;0.00;0.00;;;;;;;;;;6272011;22;20372;-68
2022/01/01 02:54:55;;;;;;;0.00;0.00;;;;;;;;;;6272633;22;20003;-68
2022/01/01 02:57:20;;;;;;;0.00;0.00;;;;;;;;;;6271970;22;20006;-68
2022/01/01 02:59:45;;;;;;;0.00;0.00;;;;;;;;;;6272709;22;20027;-68
2022/01/01 03:02:11;;;;;;;0.15;0.15;;;;;;;;;;6272070;22;20324;-68
2022/01/01 03:04:36;;;;;;;1.85;1.38;;;;;;;;;;6272023;22;20049;-67
2022/01/01 03:07:01;;;;;;;0.00;0.00;;;;;;;;;;6272715;22;20061;-67
2022/01/01 03:09:34;;;;;;;3.85;0.35;;;;;;;;;;6272067;22;20011;-68
2022/01/01 03:11:59;;;;;;;0.25;0.25;;;;;;;;;;6272110;22;20006;-67
2022/01/01 03:14:25;;;;;;;0.00;0.00;;;;;;;;;;6271458;22;20081;-68
2022/01/01 03:16:51;;;;;;;0.38;0.38;;;;;;;;;;6272433;22;20003;-68
2022/01/01 03:19:16;;;;;;;0.00;0.00;;;;;;;;;;6272012;22;19999;-68
2022/01/01 03:21:41;;;;;;;0.30;0.30;;;;;;;;;;6272484;22;20075;-68
2022/01/01 03:24:08;;;;;;;0.00;0.00;;;;;;;;;;6270557;22;20004;-67
2022/01/01 03:26:33;;;;;;;0.10;0.10;;;;;;;;;;6271875;22;20046;-66
2022/01/01 03:28:58;;;;;;;0.10;0.10;;;;;;;;;;6271836;22;19996;-67
2022/01/01 03:31:26;;;;;;;0.55;0.55;;;;;;;;;;6271890;22;20066;-67
2022/01/01 03:33:52;;;;;;;0.22;0.22;;;;;;;;;;6272203;22;20024;-67
2022/01/01 03:36:17;;;;;;;0.43;0.43;;;;;;;;;;6271844;22;19992;-67
2022/01/01 03:38:43;;;;;;;1.38;0.73;;;;;;;;;;6272532;22;20418;-68
2022/01/01 03:41:08;;;;;;;2.08;1.48;;;;;;;;;;6271429;22;20002;-67
2022/01/01 03:43:33;;;;;;;0.00;0.00;;;;;;;;;;6272215;22;20023;-67
2022/01/01 03:45:58;;;;;;;0.00;0.00;;;;;;;;;;6272529;22;20366;-67
2022/01/01 03:48:23;;;;;;;1.20;1.10;;;;;;;;;;6272054;22;19999;-67
2022/01/01 03:50:49;;;;;;;0.00;0.00;;;;;;;;;;6272060;22;20003;-67
2022/01/01 03:53:16;;;;;;;1.80;1.60;;;;;;;;;;6271658;22;20003;-67
2022/01/01 03:55:41;;;;;;;0.95;0.95;;;;;;;;;;6271731;22;20008;-68
2022/01/01 03:58:06;;;;;;;0.85;0.85;;;;;;;;;;6272207;22;20321;-67
2022/01/01 04:00:31;;;;;;;0.40;0.28;;;;;;;;;;6271458;22;19991;-67
2022/01/01 04:03:04;;;;;;;0.43;0.43;;;;;;;;;;6272170;22;19995;-67
2022/01/01 04:05:29;;;;;;;2.10;0.98;;;;;;;;;;6271658;22;20071;-67
2022/01/01 04:07:55;;;;;;;0.55;0.55;;;;;;;;;;6271957;22;20475;-67
2022/01/01 04:10:20;;;;;;;0.90;0.90;;;;;;;;;;6271602;22;20545;-67
2022/01/01 04:12:45;;;;;;;1.20;1.20;;;;;;;;;;6272059;22;20010;-67
2022/01/01 04:15:11;;;;;;;0.00;0.00;;;;;;;;;;6271772;22;20035;-67
2022/01/01 04:17:37;;;;;;;0.75;0.75;;;;;;;;;;6273265;22;20018;-67
2022/01/01 04:20:04;;;;;;;0.00;0.00;;;;;;;;;;6273824;22;20173;-67
2022/01/01 04:22:29;;;;;;;0.13;0.13;;;;;;;;;;6273285;22;20011;-67
2022/01/01 04:24:54;;;;;;;0.00;0.00;;;;;;;;;;6274078;22;20417;-67
2022/01/01 04:27:19;;;;;;;0.10;0.00;;;;;;;;;;6273353;22;20019;-67
2022/01/01 04:29:45;;;;;;;0.00;0.00;;;;;;;;;;6274072;22;19996;-67
2022/01/01 04:32:13;;;;;;;0.00;0.00;;;;;;;;;;6273384;22;20000;-67
2022/01/01 04:34:39;;;;;;;0.00;0.00;;;;;;;;;;6274205;22;20046;-67
2022/01/01 04:37:11;;;;;;;0.00;0.00;;;;;;;;;;6274092;22;20003;-67
2022/01/01 04:39:36;;;;;;;0.80;0.80;;;;;;;;;;6273581;22;20457;-67
2022/01/01 04:42:02;;;;;;;0.10;0.10;;;;;;;;;;6274047;22;20015;-67
2022/01/01 04:44:27;;;;;;;0.00;0.00;;;;;;;;;;6273439;22;20444;-67
2022/01/01 04:46:52;;;;;;;0.00;0.00;;;;;;;;;;6274393;22;20023;-67
2022/01/01 04:49:17;;;;;;;0.55;0.55;;;;;;;;;;6273507;22;20008;-68
2022/01/01 04:51:43;;;;;;;0.00;0.00;;;;;;;;;;6273981;22;20007;-66
2022/01/01 04:54:15;;;;;;;0.43;0.43;;;;;;;;;;6273562;22;20006;-67
2022/01/01 04:56:43;;;;;;;0.00;0.00;;;;;;;;;;6273421;22;20006;-67
2022/01/01 04:59:09;;;;;;;0.30;0.30;;;;;;;;;;6273824;22;20000;-67
2022/01/01 05:01:34;;;;;;;0.25;0.15;;;;;;;;;;6273460;22;20004;-67
2022/01/01 05:04:00;;;;;;;0.00;0.00;;;;;;;;;;6274092;22;19996;-67
2022/01/01 05:06:25;;;;;;;0.00;0.00;;;;;;;;;;6272878;22;20069;-67
2022/01/01 05:08:51;;;;;;;0.10;0.10;;;;;;;;;;6274224;22;20011;-67
2022/01/01 05:11:16;;;;;;;0.00;0.00;;;;;;;;;;6273564;22;20373;-67
2022/01/01 05:13:41;;;;;;;0.00;0.00;;;;;;;;;;6273818;22;19996;-67
2022/01/01 05:16:16;;;;;;;0.00;0.00;;;;;;;;;;6273563;22;20322;-67
2022/01/01 05:18:44;;;;;;;4.38;3.92;;;;;;;;;;6273859;22;20053;-67
2022/01/01 05:21:15;;;;;;;0.00;0.00;;;;;;;;;;6273570;22;19995;-67
2022/01/01 05:24:12;;;;;;;0.00;0.00;;;;;;;;;;6271214;22;20004;-67
2022/01/01 05:26:40;;;;;;;0.00;0.00;;;;;;;;;;6272136;22;20015;-67
2022/01/01 05:29:08;;;;;;;0.00;0.00;;;;;;;;;;6273574;22;20152;-67
2022/01/01 05:31:36;;;;;;;0.30;0.30;;;;;;;;;;6273036;22;20003;-67
2022/01/01 05:34:14;;;;;;;9.15;8.57;;;;;;;;;;6273427;22;20011;-67
2022/01/01 05:36:42;;;;;;;0.00;0.00;;;;;;;;;;6273340;22;20466;-67
2022/01/01 05:39:13;;;;;;;6.25;1.75;;;;;;;;;;6273336;22;20098;-67
2022/01/01 05:41:38;;;;;;;0.17;0.17;;;;;;;;;;6272656;22;20003;-68
2022/01/01 05:44:04;;;;;;;1.23;0.63;;;;;;;;;;6273500;22;20595;-67
2022/01/01 05:46:31;;;;;;;0.50;0.50;;;;;;;;;;6272850;22;19996;-67
2022/01/01 05:48:56;;;;;;;0.65;0.65;;;;;;;;;;6273496;22;19996;-67
2022/01/01 05:51:22;;;;;;;1.45;0.80;;;;;;;;;;6271922;22;20520;-68
2022/01/01 05:53:47;;;;;;;1.10;1.10;;;;;;;;;;6273123;22;20080;-67
2022/01/01 05:56:12;;;;;;;0.30;0.30;;;;;;;;;;6273255;22;20008;-67
2022/01/01 05:58:37;;;;;;;0.00;0.00;;;;;;;;;;6273146;22;20074;-67
2022/01/01 06:01:03;;;;;;;0.40;0.40;;;;;;;;;;6273216;22;19996;-66
2022/01/01 06:03:28;;;;;;;0.00;0.00;;;;;;;;;;6272687;22;19995;-67
2022/01/01 06:05:53;;;;;;;0.00;0.00;;;;;;;;;;6273408;22;20049;-67
2022/01/01 06:08:19;;;;;;;0.52;0.52;;;;;;;;;;6272187;22;20076;-67
2022/01/01 06:10:44;;;;;;;0.00;0.00;;;;;;;;;;6273350;22;19999;-67
2022/01/01 06:13:09;;;;;;;0.00;0.00;;;;;;;;;;6273291;22;20444;-67
2022/01/01 06:15:34;;;;;;;0.00;0.00;;;;;;;;;;6272609;22;19996;-68
2022/01/01 06:18:00;;;;;;;0.10;0.10;;;;;;;;;;6273629;22;20003;-67
2022/01/01 06:20:25;;;;;;;0.40;0.40;;;;;;;;;;6271997;22;19999;-67
2022/01/01 06:22:50;;;;;;;2.50;2.40;;;;;;;;;;6272322;22;20000;-67
2022/01/01 06:25:15;;;;;;;0.00;0.00;;;;;;;;;;6272525;22;20004;-68
2022/01/01 06:27:41;;;;;;;0.00;0.00;;;;;;;;;;6272755;22;20448;-66
2022/01/01 06:30:06;;;;;;;0.20;0.20;;;;;;;;;;6273177;22;20000;-66
2022/01/01 06:32:31;;;;;;;0.00;0.00;;;;;;;;;;6272420;22;20022;-67
2022/01/01 06:34:57;;;;;;;0.00;0.00;;;;;;;;;;6272845;22;20019;-67
2022/01/01 06:37:22;;;;;;;0.00;0.00;;;;;;;;;;6272688;22;20077;-67
2022/01/01 06:39:49;;;;;;;0.20;0.20;;;;;;;;;;6272669;22;20050;-68
2022/01/01 06:42:14;;;;;;;0.05;0.05;;;;;;;;;;6272755;22;20000;-67
2022/01/01 06:44:39;;;;;;;0.00;0.00;;;;;;;;;;6245122;22;19998;-67
2022/01/01 06:47:05;;;;;;;0.00;0.00;;;;;;;;;;6272764;22;20011;-68
2022/01/01 06:49:30;;;;;;;0.00;0.00;;;;;;;;;;6271873;22;20008;-67
2022/01/01 06:51:55;;;;;;;0.38;0.38;;;;;;;;;;6272638;22;20003;-70
2022/01/01 06:54:23;;;;;;;0.00;0.00;;;;;;;;;;6272217;22;20311;-68
2022/01/01 06:56:48;;;;;;;0.00;0.00;;;;;;;;;;6272778;22;20006;-67
2022/01/01 06:59:13;;;;;;;0.00;0.00;;;;;;;;;;6272830;22;20402;-67
2022/01/01 07:01:39;;;;;;;0.00;0.00;;;;;;;;;;6272120;22;19996;-67
2022/01/01 07:04:04;;;;;;;0.10;0.10;;;;;;;;;;6272512;22;19992;-67
2022/01/01 07:06:30;;;;;;;0.00;0.00;;;;;;;;;;6273319;22;20007;-68
2022/01/01 07:08:55;;;;;;;0.00;0.00;;;;;;;;;;6272513;22;20000;-67
2022/01/01 07:11:20;;;;;;;0.00;0.00;;;;;;;;;;6271987;22;19996;-67
2022/01/01 07:13:45;;;;;;;0.00;0.00;;;;;;;;;;6272631;22;20414;-67
2022/01/01 07:16:10;;;;;;;0.00;0.00;;;;;;;;;;6272447;22;20003;-67
2022/01/01 07:18:35;;;;;;;0.00;0.00;;;;;;;;;;6271558;22;19996;-67
2022/01/01 07:21:01;;;;;;;0.00;0.00;;;;;;;;;;6272588;22;20010;-67
2022/01/01 07:23:26;;;;;;;0.00;0.00;;;;;;;;;;6271187;22;20692;-67
2022/01/01 07:25:51;;;;;;;0.00;0.00;;;;;;;;;;6272361;22;20437;-67
2022/01/01 07:28:16;;;;;;;0.00;0.00;;;;;;;;;;6272435;22;20067;-67
2022/01/01 07:30:45;;;;;;;0.00;0.00;;;;;;;;;;6272253;22;20005;-67
2022/01/01 07:33:14;;;;;;;0.00;0.00;;;;;;;;;;6272619;22;20082;-67
2022/01/01 07:35:39;;;;;;;0.00;0.00;;;;;;;;;;6271975;22;20003;-68
2022/01/01 07:38:05;;;;;;;0.00;0.00;;;;;;;;;;6272008;22;20004;-67
2022/01/01 07:40:32;;;;;;;0.00;0.00;;;;;;;;;;6271597;22;19999;-67
2022/01/01 07:42:57;;;;;;;0.00;0.00;;;;;;;;;;6272566;22;20420;-68
2022/01/01 07:45:22;;;;;;;0.00;0.00;;;;;;;;;;6271858;22;20000;-67
2022/01/01 07:47:47;;;;;;;0.17;0.17;;;;;;;;;;6271800;22;20004;-67
2022/01/01 07:50:13;;;;;;;0.00;0.00;;;;;;;;;;6272354;22;20007;-67
2022/01/01 07:52:38;;;;;;;0.75;0.75;;;;;;;;;;6271522;22;20004;-67
2022/01/01 07:55:04;;;;;;;0.00;0.00;;;;;;;;;;6272120;22;20074;-67
2022/01/01 07:57:29;;;;;;;0.00;0.00;;;;;;;;;;6271823;22;19992;-67
2022/01/01 07:59:55;;;;;;;0.47;0.47;;;;;;;;;;6272131;22;19996;-67
2022/01/01 08:02:20;;;;;;;0.00;0.00;;;;;;;;;;6271641;22;19996;-67
2022/01/01 08:04:45;;;;;;;0.00;0.00;;;;;;;;;;6272206;22;20006;-67
2022/01/01 08:07:11;;;;;;;0.00;0.00;;;;;;;;;;6272378;22;20007;-67
2022/01/01 08:09:38;;;;;;;0.00;0.00;;;;;;;;;;6271602;22;20079;-67
2022/01/01 08:12:04;;;;;;;0.00;0.00;;;;;;;;;;6272218;22;20341;-67
2022/01/01 08:14:29;;;;;;;0.00;0.00;;;;;;;;;;6271623;22;20079;-67
2022/01/01 08:17:04;;;;;;;0.52;0.45;;;;;;;;;;6271521;22;20067;-67
2022/01/01 08:19:30;;;;;;;0.00;0.00;;;;;;;;;;6271587;22;19999;-68
2022/01/01 08:21:55;;;;;;;0.00;0.00;;;;;;;;;;6271675;22;20000;-68
2022/01/01 08:24:21;;;;;;;0.00;0.00;;;;;;;;;;6271538;22;20035;-68
2022/01/01 08:26:46;;;;;;;0.00;0.00;;;;;;;;;;6271806;22;20012;-67
2022/01/01 08:29:12;;;;;;;0.00;0.00;;;;;;;;;;6271978;22;20471;-68
2022/01/01 08:31:37;;;;;;;0.00;0.00;;;;;;;;;;6271899;22;20028;-68
2022/01/01 08:34:02;;;;;;;0.00;0.00;;;;;;;;;;6271967;22;20443;-68
2022/01/01 08:36:27;;;;;;;0.00;0.00;;;;;;;;;;6271597;22;20003;-68
2022/01/01 08:38:53;;;;;;;0.00;0.00;;;;;;;;;;6271612;22;20049;-68
2022/01/01 08:41:18;;;;;;;0.00;0.00;;;;;;;;;;6272130;22;20004;-68
2022/01/01 08:43:43;;;;;;;0.00;0.00;;;;;;;;;;6271070;22;20064;-68
2022/01/01 08:46:08;;;;;;;0.20;0.20;;;;;;;;;;6272035;22;20003;-67
2022/01/01 08:48:34;;;;;;;1.45;1.42;;;;;;;;;;6270635;22;20007;-68
2022/01/01 08:50:59;;;;;;;0.20;0.20;;;;;;;;;;6269354;22;20004;-68
2022/01/01 08:53:25;;;;;;;0.00;0.00;;;;;;;;;;6269188;22;20000;-71
2022/01/01 08:55:50;;;;;;;0.10;0.10;;;;;;;;;;6270652;22;20004;-68
2022/01/01 08:58:15;;;;;;;0.00;0.00;;;;;;;;;;6271279;22;20004;-69
2022/01/01 09:00:40;;;;;;;0.00;0.00;;;;;;;;;;6270828;22;20007;-67
2022/01/01 09:03:06;;;;;;;0.00;0.00;;;;;;;;;;6244647;22;20006;-68
2022/01/01 09:05:31;;;;;;;0.55;0.55;;;;;;;;;;6272756;22;20003;-68
2022/01/01 09:07:56;;;;;;;0.80;0.80;;;;;;;;;;6273080;22;20057;-68
2022/01/01 09:10:22;;;;;;;0.00;0.00;;;;;;;;;;6245710;22;19999;-68
2022/01/01 09:12:47;;;;;;;1.77;1.67;;;;;;;;;;6271623;22;20015;-67
2022/01/01 09:15:12;;;;;;;2.28;2.08;;;;;;;;;;6273749;22;20007;-66
2022/01/01 09:17:37;;;;;;;0.00;0.00;;;;;;;;;;6271946;22;20053;-71
2022/01/01 09:20:03;;;;;;;0.75;0.45;;;;;;;;;;6272519;22;20079;-71
2022/01/01 09:22:28;;;;;;;0.60;0.60;;;;;;;;;;6272206;22;20004;-72
2022/01/01 09:24:53;;;;;;;0.00;0.00;;;;;;;;;;6273543;22;20032;-72
2022/01/01 09:27:19;;;;;;;0.00;0.00;;;;;;;;;;6272961;22;20436;-72
2022/01/01 09:29:44;;;;;;;0.00;0.00;;;;;;;;;;6272248;22;20083;-74
2022/01/01 09:32:10;;;;;;;0.00;0.00;;;;;;;;;;6272938;22;20000;-73
2022/01/01 09:34:36;;;;;;;0.00;0.00;;;;;;;;;;6272311;22;20084;-71
2022/01/01 09:37:01;;;;;;;0.20;0.20;;;;;;;;;;6273134;22;20039;-72
2022/01/01 09:39:26;;;;;;;1.30;1.20;;;;;;;;;;6272436;22;20031;-73
2022/01/01 09:41:52;;;;;;;0.00;0.00;;;;;;;;;;6272912;22;20467;-72
2022/01/01 09:44:17;;;;;;;0.00;0.00;;;;;;;;;;6273029;22;20778;-72
2022/01/01 09:46:44;;;;;;;4.68;1.67;;;;;;;;;;6272658;22;20007;-72
2022/01/01 09:49:10;;;;;;;0.00;0.00;;;;;;;;;;6273020;22;20432;-72
2022/01/01 09:51:35;;;;;;;0.00;0.00;;;;;;;;;;6272270;22;20000;-71
2022/01/01 09:54:01;;;;;;;0.50;0.50;;;;;;;;;;6272055;22;19996;-72
2022/01/01 09:56:26;;;;;;;0.30;0.30;;;;;;;;;;6244887;22;20062;-72
2022/01/01 09:58:51;;;;;;;0.30;0.30;;;;;;;;;;6273142;22;19999;-72
2022/01/01 10:01:17;;;;;;;1.17;1.08;;;;;;;;;;6272839;22;20042;-72
2022/01/01 10:03:43;;;;;;;0.00;0.00;;;;;;;;;;6272530;22;19995;-72
2022/01/01 10:06:09;;;;;;;0.00;0.00;;;;;;;;;;6272956;22;20091;-72
2022/01/01 10:08:37;;;;;;;0.00;0.00;;;;;;;;;;6272269;22;19999;-72
2022/01/01 10:11:03;;;;;;;0.00;0.00;;;;;;;;;;6272534;22;20631;-72
2022/01/01 10:13:31;;;;;;;0.03;0.03;;;;;;;;;;6271834;22;20011;-72
2022/01/01 10:16:00;;;;;;;2.08;1.55;;;;;;;;;;6272052;22;20015;-72
2022/01/01 10:18:29;;;;;;;2.55;0.47;;;;;;;;;;6272695;22;20413;-72
2022/01/01 10:20:58;;;;;;;0.38;0.38;;;;;;;;;;6273030;22;20003;-72
2022/01/01 10:23:27;;;;;;;0.00;0.00;;;;;;;;;;6272546;22;20068;-73
2022/01/01 10:28:36;;;;;;;2.85;2.17;;;;;;;;;;6271584;22;20064;-72
2022/01/01 10:31:06;;;;;;;0.20;0.20;;;;;;;;;;6272488;22;20094;-72
2022/01/01 10:33:32;;;;;;;0.00;0.00;;;;;;;;;;6271810;22;20007;-72
2022/01/01 10:35:57;;;;;;;0.15;0.15;;;;;;;;;;6272378;22;20008;-73
2022/01/01 10:38:23;;;;;;;0.60;0.08;;;;;;;;;;6272025;22;20004;-73
2022/01/01 10:40:56;;;;;;;0.98;0.98;;;;;;;;;;6271264;22;19995;-73
2022/01/01 10:43:33;;;;;;;0.00;0.00;;;;;;;;;;6272595;22;20058;-73
2022/01/01 10:45:58;;;;;;;0.00;0.00;;;;;;;;;;6272024;22;20031;-73
2022/01/01 10:48:39;;;;;;;0.00;0.00;;;;;;;;;;6272033;22;20006;-73
2022/01/01 10:51:07;;;;;;;1.00;1.00;;;;;;;;;;6272124;22;20000;-72
2022/01/01 10:53:33;;;;;;;0.22;0.22;;;;;;;;;;6271585;22;20006;-73
2022/01/01 10:55:59;;;;;;;0.00;0.00;;;;;;;;;;6272263;22;20078;-73
2022/01/01 10:58:26;;;;;;;0.20;0.20;;;;;;;;;;6272328;22;20073;-71
2022/01/01 11:00:52;;;;;;;0.10;0.10;;;;;;;;;;6271510;22;20004;-71
2022/01/01 11:03:18;;;;;;;0.08;0.08;;;;;;;;;;6272450;22;20412;-72
2022/01/01 11:05:43;;;;;;;0.00;0.00;;;;;;;;;;6271462;22;20000;-72
2022/01/01 11:08:10;;;;;;;0.38;0.38;;;;;;;;;;6270704;22;20389;-71
2022/01/01 11:10:36;;;;;;;0.98;0.98;;;;;;;;;;6271579;22;19999;-65
2022/01/01 11:13:03;;;;;;;0.00;0.00;;;;;;;;;;6271014;22;20014;-65
2022/01/01 11:15:28;;;;;;;0.20;0.20;;;;;;;;;;6272262;22;20003;-65
2022/01/01 11:17:56;;;;;;;0.10;0.10;;;;;;;;;;6244937;22;20071;-66
2022/01/01 11:20:21;;;;;;;0.00;0.00;;;;;;;;;;6272118;22;20007;-65
2022/01/01 11:22:47;;;;;;;0.00;0.00;;;;;;;;;;6271501;22;20000;-65
2022/01/01 11:25:12;;;;;;;0.00;0.00;;;;;;;;;;6271526;22;20069;-65
2022/01/01 11:27:37;;;;;;;1.27;1.27;;;;;;;;;;6270679;22;20019;-65
2022/01/01 11:30:04;;;;;;;0.35;0.35;;;;;;;;;;6244804;22;20007;-65
2022/01/01 11:32:50;;;;;;;0.00;0.00;;;;;;;;;;6272091;22;19996;-65
2022/01/01 11:35:17;;;;;;;4.30;2.65;;;;;;;;;;6270772;22;20014;-65
2022/01/01 11:38:02;;;;;;;0.03;0.03;;;;;;;;;;6270927;22;20007;-65
2022/01/01 11:40:31;;;;;;;0.00;0.00;;;;;;;;;;6271857;22;20380;-66
2022/01/01 11:42:56;;;;;;;0.90;0.65;;;;;;;;;;6271659;22;19996;-67
2022/01/01 11:45:41;;;;;;;1.70;1.60;;;;;;;;;;6271821;22;20011;-67
2022/01/01 11:48:39;;;;;;;0.90;0.90;;;;;;;;;;6271682;22;20083;-65
2022/01/01 11:51:19;;;;;;;2.17;0.45;;;;;;;;;;6188226;22;20006;-66
2022/01/01 11:54:02;;;;;;;0.00;0.00;;;;;;;;;;6271071;22;20080;-65
2022/01/01 11:56:48;;;;;;;0.20;0.20;;;;;;;;;;6271595;22;20007;-65
2022/01/01 11:59:16;;;;;;;0.00;0.00;;;;;;;;;;6271317;22;20003;-66
2022/01/01 12:01:42;;;;;;;0.00;0.00;;;;;;;;;;6271364;22;20055;-66
2022/01/01 12:04:21;;;;;;;2.17;2.17;;;;;;;;;;6270397;22;20004;-65
2022/01/01 12:06:51;;;;;;;0.05;0.05;;;;;;;;;;6271080;22;20007;-65
2022/01/01 12:09:16;;;;;;;0.00;0.00;;;;;;;;;;6271897;22;20341;-65
2022/01/01 12:11:49;;;;;;;0.05;0.03;;;;;;;;;;6271440;22;20000;-66
2022/01/01 12:14:19;;;;;;;0.55;0.13;;;;;;;;;;6271538;22;20322;-65
2022/01/01 12:16:48;;;;;;;0.00;0.00;;;;;;;;;;6271675;22;20830;-65
2022/01/01 12:19:14;;;;;;;0.13;0.13;;;;;;;;;;6271730;22;20062;-67
2022/01/01 12:21:40;;;;;;;0.10;0.10;;;;;;;;;;6271414;22;20301;-66
2022/01/01 12:24:08;;;;;;;0.10;0.10;;;;;;;;;;6243982;22;20298;-66
2022/01/01 12:26:34;;;;;;;1.80;1.67;;;;;;;;;;6271277;22;20081;-67
2022/01/01 12:29:03;;;;;;;0.00;0.00;;;;;;;;;;6272433;22;20404;-66
2022/01/01 12:31:29;;;;;;;;;;;;;;;;;;6272774;22;20010;-66
2022/01/01 12:33:59;;;;;;;0.15;0.15;;;;;;;;;;6271408;22;20313;-66
2022/01/01 12:36:26;;;;;;;0.00;0.00;;;;;;;;;;6244841;22;19999;-67
2022/01/01 12:38:56;;;;;;;0.00;0.00;;;;;;;;;;6272624;22;20082;-68
2022/01/01 12:41:32;;;;;;;0.00;0.00;;;;;;;;;;6273812;22;20004;-66
2022/01/01 12:43:58;;;;;;;0.20;0.20;;;;;;;;;;6274421;22;20078;-67
2022/01/01 12:46:26;;;;;;;0.00;0.00;;;;;;;;;;6274233;22;20045;-67
2022/01/01 12:48:53;;;;;;;0.00;0.00;;;;;;;;;;6273091;22;20311;-69
2022/01/01 12:51:21;;;;;;;0.00;0.00;;;;;;;;;;6273039;22;20000;-73
2022/01/01 12:53:47;;;;;;;0.52;0.52;;;;;;;;;;6271611;22;20003;-72
2022/01/01 12:56:14;;;;;;;0.00;0.00;;;;;;;;;;6272050;22;20326;-72
2022/01/01 12:58:41;;;;;;;0.00;0.00;;;;;;;;;;6271662;22;19999;-72
2022/01/01 13:01:26;;;;;;;0.00;0.00;;;;;;;;;;6271993;22;19992;-70
2022/01/01 13:04:02;;;;;;;2.17;2.08;;;;;;;;;;6270589;22;20729;-70
2022/01/01 13:06:31;;;;;;;0.00;0.00;;;;;;;;;;6272552;22;20027;-71
2022/01/01 13:08:56;;;;;;;;;;;;;;;;;;6272243;22;19999;-70
2022/01/01 13:11:21;;;;;;;0.00;0.00;;;;;;;;;;6272512;22;19907;-71
2022/01/01 13:13:47;;;;;;;0.00;0.00;;;;;;;;;;6271926;22;20003;-72
2022/01/01 13:16:12;;;;;;;0.32;0.32;;;;;;;;;;6272679;22;20000;-71
2022/01/01 13:18:37;;;;;;;0.28;0.28;;;;;;;;;;6270693;22;20000;-71
2022/01/01 13:21:03;;;;;;;0.00;0.00;;;;;;;;;;6271568;22;20070;-71
2022/01/01 13:23:28;;;;;;;0.00;0.00;;;;;;;;;;6271442;22;19995;-72
2022/01/01 13:25:54;;;;;;;0.00;0.00;;;;;;;;;;6270990;22;20023;-72
2022/01/01 13:28:28;;;;;;;6.85;6.22;;;;;;;;;;6272094;22;20003;-72
2022/01/01 13:30:54;;;;;;;0.00;0.00;;;;;;;;;;6273095;22;20014;-72
2022/01/01 13:33:21;;;;;;;0.00;0.00;;;;;;;;;;6273046;22;20051;-72
2022/01/01 13:35:52;;;;;;;0.00;0.00;;;;;;;;;;6271731;22;20014;-72
2022/01/01 13:38:18;;;;;;;0.00;0.00;;;;;;;;;;6272434;22;20057;-72
2022/01/01 13:40:44;;;;;;;8.25;8.00;;;;;;;;;;6271069;22;20004;-72
2022/01/01 13:43:10;;;;;;;0.00;0.00;;;;;;;;;;6271892;22;20007;-71
2022/01/01 13:45:35;;;;;;;0.00;0.00;;;;;;;;;;6270457;22;20003;-70
2022/01/01 13:48:04;;;;;;;0.05;0.05;;;;;;;;;;6271524;22;20000;-71
2022/01/01 13:50:36;;;;;;;0.00;0.00;;;;;;;;;;6271256;22;20648;-72
2022/01/01 13:53:05;;;;;;;0.75;0.45;;;;;;;;;;6271096;22;20701;-71
2022/01/01 13:55:31;;;;;;;0.00;0.00;;;;;;;;;;6270978;22;19996;-71
2022/01/01 13:57:58;;;;;;;0.00;0.00;;;;;;;;;;6269702;22;20561;-71
2022/01/01 14:00:24;;;;;;;0.38;0.38;;;;;;;;;;6269775;22;20003;-71
2022/01/01 14:02:52;;;;;;;0.00;0.00;;;;;;;;;;6269798;22;20000;-71
2022/01/01 14:05:17;;;;;;;0.20;0.20;;;;;;;;;;6271101;22;20438;-72
2022/01/01 14:07:43;;;;;;;0.30;0.30;;;;;;;;;;6270717;22;20028;-70
2022/01/01 14:10:18;;;;;;;0.00;0.00;;;;;;;;;;6270457;22;20008;-70
2022/01/01 14:12:47;;;;;;;0.00;0.00;;;;;;;;;;6271737;22;20015;-71
2022/01/01 14:15:12;;;;;;;;;;;;;;;;;;6271910;22;20078;-71
2022/01/01 14:17:47;;;;;;;0.00;0.00;;;;;;;;;;6271657;22;19927;-73
2022/01/01 14:20:23;;;;;;;0.00;0.00;;;;;;;;;;6270752;22;19995;-73
2022/01/01 14:22:48;;;;;;;0.00;0.00;;;;;;;;;;6271200;22;20000;-74
2022/01/01 14:25:14;;;;;;;0.00;0.00;;;;;;;;;;6270934;22;20053;-74
2022/01/01 14:27:40;;;;;;;0.00;0.00;;;;;;;;;;6270283;22;20069;-73
2022/01/01 14:30:05;;;;;;;0.00;0.00;;;;;;;;;;6271314;22;20008;-74
2022/01/01 14:32:31;;;;;;;0.00;0.00;;;;;;;;;;6272311;22;20075;-72
2022/01/01 14:34:56;;;;;;;6.93;2.53;;;;;;;;;;6244814;22;20626;-74
2022/01/01 14:37:21;;;;;;;0.00;0.00;;;;;;;;;;6245459;22;20011;-72
2022/01/01 14:39:47;;;;;;;0.00;0.00;;;;;;;;;;6271868;22;20386;-72
2022/01/01 14:42:12;;;;;;;0.00;0.00;;;;;;;;;;6272525;22;19999;-73
2022/01/01 14:44:39;;;;;;;0.00;0.00;;;;;;;;;;6245107;22;20372;-75
2022/01/01 14:47:08;;;;;;;0.00;0.00;;;;;;;;;;6272795;22;20067;-73
2022/01/01 14:49:42;;;;;;;0.00;0.00;;;;;;;;;;6272411;22;20006;-73